»·PEaware :: N978AP KSNA-KCRQ

N978AP :: KSNA-KCRQ

FLIGHT INFORMATION

Flight Status: Arrived
Operator: Privately registered:
United States
More flights under this callsign
Pilot: Francisco M. (12844)
Aircraft: CESSNA 172 SKYHAWK
(C172)
More flights by this aircraft type
Origin: KSNA John Wayne-Orange Co
United States
Destination: KCRQ McClellan-Palomar
United States
More flights between these airports :: More routes between these airports
Route: +V23 OCN
File this flight plan on PilotEdge
Remarks: I 2 RATING
Altitude:
(Current/Filed)
5,000ft
Speed:
(Current/Filed)
115kts
Departed: 08-Jan-18 07:00 PM
Arrived: 08-Jan-18 07:47 PM
Distance/Time
Traveled:
44nm/0:46
Distance/Time
To Go:
Arrived

Flight Plot

Page will automatically refresh every two minutes.


Map Options




Map Legend


Flown Route
Filed Route
Departure Airport
Arrival Airport
Navaid (VOR, NDB)
Fix

Horizontal Profiles

Position Reports

Time Latitude Longitude Heading Altitude Ground
Speed
08-Jan-18 18:28 33.669419 -117.869848 220 59ft 0kts
08-Jan-18 18:29 33.669419 -117.869848 220 59ft 0kts
08-Jan-18 18:30 33.669419 -117.869848 220 59ft 0kts
08-Jan-18 18:31 33.669419 -117.869848 220 59ft 0kts
08-Jan-18 18:32 33.669419 -117.869848 220 59ft 0kts
08-Jan-18 18:33 33.669419 -117.869848 220 59ft 0kts
08-Jan-18 18:34 33.669419 -117.869848 220 59ft 0kts
08-Jan-18 18:35 33.669419 -117.869848 220 59ft 0kts
08-Jan-18 18:36 33.669419 -117.869848 220 59ft 0kts
08-Jan-18 18:37 33.669419 -117.869848 220 59ft 0kts
08-Jan-18 18:38 33.669419 -117.869848 220 59ft 0kts
08-Jan-18 18:39 33.669419 -117.869848 220 59ft 0kts
08-Jan-18 18:40 33.669419 -117.869848 220 59ft 0kts
08-Jan-18 18:41 33.669419 -117.869848 220 59ft 0kts
08-Jan-18 18:42 33.669419 -117.869848 220 59ft 0kts
08-Jan-18 18:43 33.669419 -117.869848 220 59ft 0kts
08-Jan-18 18:44 33.669419 -117.869848 220 59ft 0kts
08-Jan-18 18:45 33.669419 -117.869848 220 59ft 0kts
08-Jan-18 18:46 33.669419 -117.869848 220 59ft 0kts
08-Jan-18 18:47 33.669419 -117.869848 220 59ft 0kts
08-Jan-18 18:48 33.669419 -117.869848 220 59ft 0kts
08-Jan-18 18:49 33.669419 -117.869848 220 59ft 0kts
08-Jan-18 18:50 33.669419 -117.869848 220 59ft 0kts
08-Jan-18 18:51 33.669419 -117.869848 220 59ft 0kts
08-Jan-18 18:52 33.669419 -117.869848 220 59ft 0kts
08-Jan-18 18:53 33.669419 -117.869848 220 59ft 0kts
08-Jan-18 18:54 33.669419 -117.869848 220 59ft 0kts
08-Jan-18 18:55 33.669419 -117.869848 220 59ft 0kts
08-Jan-18 18:56 33.669419 -117.869848 220 59ft 0kts
08-Jan-18 18:57 33.669419 -117.869848 220 59ft 0kts
08-Jan-18 18:58 33.669487 -117.870317 318 59ft 10kts
08-Jan-18 18:59 33.671191 -117.869050 351 59ft 3kts
08-Jan-18 19:00 33.673777 -117.867256 2 59ft 3kts
08-Jan-18 19:01 33.675997 -117.865909 30 59ft 22kts
08-Jan-18 19:02 33.680007 -117.863675 293 59ft 0kts
08-Jan-18 19:03 33.680007 -117.863675 293 59ft 0kts
08-Jan-18 19:04 33.680007 -117.863675 293 59ft 0kts
08-Jan-18 19:05 33.680007 -117.863675 293 59ft 0kts
08-Jan-18 19:06 33.671631 -117.869643 205 363ft 78kts
08-Jan-18 19:07 33.652672 -117.879333 190 1390ft 86kts
08-Jan-18 19:08 33.629785 -117.881912 185 2428ft 86kts
08-Jan-18 19:09 33.605288 -117.884946 191 3341ft 92kts
08-Jan-18 19:10 33.581020 -117.893697 208 4241ft 92kts
08-Jan-18 19:11 33.555936 -117.896841 178 5072ft 94kts
08-Jan-18 19:12 33.527197 -117.901195 182 5408ft 101kts
08-Jan-18 19:13 33.500081 -117.889422 111 5254ft 117kts
08-Jan-18 19:14 33.488689 -117.848338 114 4892ft 132kts
08-Jan-18 19:15 33.476219 -117.811348 108 4696ft 127kts
08-Jan-18 19:16 33.463706 -117.777743 121 4902ft 92kts
08-Jan-18 19:17 33.446789 -117.752040 119 4761ft 106kts
08-Jan-18 19:18 33.436395 -117.724177 107 5208ft 74kts
08-Jan-18 19:19 33.426308 -117.693251 109 5277ft 105kts
08-Jan-18 19:20 33.415044 -117.657634 109 5322ft 115kts
08-Jan-18 19:21 33.400484 -117.620659 118 5233ft 121kts
08-Jan-18 19:22 33.385400 -117.585640 115 5168ft 123kts
08-Jan-18 19:23 33.364329 -117.553482 138 5093ft 122kts
08-Jan-18 19:24 33.336315 -117.529870 133 5016ft 121kts
08-Jan-18 19:25 33.312062 -117.502846 143 5041ft 118kts
08-Jan-18 19:26 33.286549 -117.475226 129 4958ft 117kts
08-Jan-18 19:27 33.282241 -117.444531 78 4945ft 118kts
08-Jan-18 19:28 33.278679 -117.400561 93 4973ft 115kts
08-Jan-18 19:29 33.276953 -117.367965 93 4973ft 119kts
08-Jan-18 19:30 33.274506 -117.321624 93 4972ft 120kts
08-Jan-18 19:31 33.271186 -117.288517 100 4972ft 120kts
08-Jan-18 19:32 33.263985 -117.242515 100 4972ft 121kts
08-Jan-18 19:33 33.258839 -117.209597 100 4972ft 121kts
08-Jan-18 19:34 33.251633 -117.163468 100 4972ft 121kts
08-Jan-18 19:35 33.246493 -117.130535 100 4972ft 121kts
08-Jan-18 19:36 33.240322 -117.090965 100 4972ft 121kts
08-Jan-18 19:37 33.232962 -117.051891 114 4953ft 122kts
08-Jan-18 19:38 33.223520 -117.013526 100 4962ft 122kts
08-Jan-18 19:39 33.219063 -116.973712 98 5004ft 119kts
08-Jan-18 19:40 33.211299 -116.934829 105 4980ft 122kts
08-Jan-18 19:41 33.199525 -116.905929 150 4917ft 123kts
08-Jan-18 19:42 33.167576 -116.914038 191 4911ft 121kts
08-Jan-18 19:43 33.149059 -116.941168 271 4850ft 122kts
08-Jan-18 19:44 33.149166 -116.981082 270 4905ft 122kts
08-Jan-18 19:45 33.152035 -117.020580 275 4851ft 120kts
08-Jan-18 19:46 33.152217 -117.060578 279 4360ft 117kts
08-Jan-18 19:47 33.157121 -117.099734 276 3632ft 116kts
08-Jan-18 19:48 33.151188 -117.138097 255 2840ft 117kts
08-Jan-18 19:49 33.145469 -117.176284 259 2116ft 115kts
08-Jan-18 19:50 33.136770 -117.213019 261 1454ft 117kts
08-Jan-18 19:51 33.133560 -117.240707 259 1328ft 79kts
08-Jan-18 19:52 33.130563 -117.263252 264 687ft 66kts
08-Jan-18 19:53 33.128517 -117.279223 274 308ft 10kts
08-Jan-18 19:54 33.128967 -117.280178 330 308ft 0kts
08-Jan-18 19:55 33.128967 -117.280178 330 308ft 0kts
08-Jan-18 19:56 33.128967 -117.280178 330 308ft 0kts
08-Jan-18 19:57 33.129049 -117.281880 341 310ft 0kts

Navigation Log

Ident Type
1. KSNA Airport
2. OCN Navaid
3. KCRQ Airport